createdAt,value
2022-12-03T00:02:21.539Z,14.82
2022-12-03T00:04:48.535Z,15.60
2022-12-03T00:07:15.467Z,14.73
2022-12-03T00:09:42.959Z,14.32
2022-12-03T00:12:09.963Z,15.07
2022-12-03T00:14:41.250Z,15.63
2022-12-03T00:17:11.340Z,12.70
2022-12-03T00:19:38.221Z,14.10
2022-12-03T00:22:05.175Z,13.15
2022-12-03T00:24:32.279Z,13.55
2022-12-03T00:26:59.215Z,14.43
2022-12-03T00:29:26.130Z,13.30
2022-12-03T00:31:53.106Z,13.25
2022-12-03T00:34:20.042Z,15.02
2022-12-03T00:36:47.017Z,15.05
2022-12-03T00:39:13.965Z,12.35
2022-12-03T00:41:40.888Z,12.43
2022-12-03T00:44:07.885Z,12.93
2022-12-03T00:46:34.846Z,12.25
2022-12-03T00:49:01.848Z,12.82
2022-12-03T00:51:28.848Z,13.18
2022-12-03T00:53:55.729Z,11.65
2022-12-03T00:56:22.661Z,13.13
2022-12-03T00:58:50.039Z,12.43
2022-12-03T01:01:17.022Z,12.00
2022-12-03T01:03:43.916Z,11.60
2022-12-03T01:06:10.838Z,12.93
2022-12-03T01:08:37.739Z,13.57
2022-12-03T01:11:24.739Z,12.57
2022-12-03T01:13:51.659Z,12.52
2022-12-03T01:16:18.568Z,12.45
2022-12-03T01:18:46.476Z,12.55
2022-12-03T01:21:13.386Z,12.43
2022-12-03T01:23:40.358Z,12.10
2022-12-03T01:26:07.248Z,13.00
2022-12-03T01:28:34.354Z,12.70
2022-12-03T01:31:19.752Z,13.85
2022-12-03T01:33:46.730Z,11.98
2022-12-03T01:36:13.612Z,11.18
2022-12-03T01:38:40.620Z,13.45
2022-12-03T01:41:11.712Z,12.68
2022-12-03T01:43:39.106Z,18.13
2022-12-03T01:46:06.157Z,17.63
2022-12-03T01:48:34.414Z,14.52
2022-12-03T01:51:01.489Z,12.70
2022-12-03T01:53:28.410Z,15.90
2022-12-03T01:55:55.307Z,16.15
2022-12-03T01:58:26.674Z,16.70
2022-12-03T02:00:53.889Z,17.77
2022-12-03T02:03:25.673Z,18.38
2022-12-03T02:05:52.649Z,18.73
2022-12-03T02:08:28.607Z,21.70
2022-12-03T02:10:55.706Z,18.05
2022-12-03T02:13:22.631Z,18.92
2022-12-03T02:15:49.707Z,19.83
2022-12-03T02:18:16.635Z,19.75
2022-12-03T02:21:13.332Z,19.25
2022-12-03T02:23:59.240Z,21.83
2022-12-03T02:26:26.214Z,21.75
2022-12-03T02:28:53.097Z,22.02
2022-12-03T02:31:20.130Z,19.38
2022-12-03T02:33:47.155Z,19.38
2022-12-03T02:36:14.163Z,18.48
2022-12-03T02:38:41.182Z,20.65
2022-12-03T02:41:10.535Z,20.17
2022-12-03T02:43:37.644Z,20.98
2022-12-03T02:46:04.767Z,17.45
2022-12-03T02:48:38.651Z,17.98
2022-12-03T02:51:09.402Z,18.77
2022-12-03T02:53:42.466Z,18.05
2022-12-03T02:56:09.582Z,18.25
2022-12-03T02:58:36.469Z,18.05
2022-12-03T03:01:03.552Z,17.05
2022-12-03T03:03:30.745Z,17.00
2022-12-03T03:05:57.762Z,19.67
2022-12-03T03:08:24.900Z,18.35
2022-12-03T03:10:51.802Z,18.15
2022-12-03T03:13:19.574Z,17.38
2022-12-03T03:15:46.542Z,16.33
2022-12-03T03:18:14.870Z,16.35
2022-12-03T03:20:41.867Z,16.77
2022-12-03T03:23:11.827Z,15.93
2022-12-03T03:25:39.558Z,13.98
2022-12-03T03:28:06.549Z,14.60
2022-12-03T03:30:33.745Z,12.25
2022-12-03T03:33:00.679Z,11.52
2022-12-03T03:35:27.614Z,10.25
2022-12-03T03:37:54.805Z,9.82
2022-12-03T03:40:21.769Z,9.13
2022-12-03T03:42:48.775Z,10.93
2022-12-03T03:45:16.703Z,11.80
2022-12-03T03:47:43.634Z,8.30
2022-12-03T03:50:11.140Z,9.75
2022-12-03T03:52:38.096Z,10.68
2022-12-03T03:55:05.667Z,12.98
2022-12-03T03:57:32.709Z,14.50
2022-12-03T03:59:59.856Z,11.95
2022-12-03T04:02:27.807Z,12.95
2022-12-03T04:04:54.902Z,12.18
2022-12-03T04:07:22.135Z,11.38
2022-12-03T04:09:49.171Z,11.43
2022-12-03T04:12:34.639Z,10.25
2022-12-03T04:15:01.585Z,12.10
2022-12-03T04:17:28.491Z,10.15
2022-12-03T04:19:55.486Z,11.77
2022-12-03T04:22:40.535Z,11.05
2022-12-03T04:25:27.048Z,9.18
2022-12-03T04:28:13.002Z,10.05
2022-12-03T04:30:40.061Z,11.77
2022-12-03T04:33:25.546Z,10.00
2022-12-03T04:35:52.699Z,7.88
2022-12-03T04:38:19.699Z,10.35
2022-12-03T04:41:01.660Z,10.45
2022-12-03T04:43:28.989Z,7.57
2022-12-03T04:45:56.002Z,8.73
2022-12-03T04:48:23.128Z,8.05
2022-12-03T04:50:50.038Z,10.55
2022-12-03T04:53:17.073Z,8.45
2022-12-03T04:55:44.051Z,7.38
2022-12-03T04:58:11.009Z,7.50
2022-12-03T05:00:37.946Z,9.15
2022-12-03T05:03:04.965Z,7.68
2022-12-03T05:05:31.925Z,7.95
2022-12-03T05:07:58.987Z,9.20
2022-12-03T05:10:25.980Z,10.85
2022-12-03T05:12:52.930Z,9.52
2022-12-03T05:15:19.819Z,8.57
2022-12-03T05:17:46.770Z,9.30
2022-12-03T05:20:32.610Z,9.45
2022-12-03T05:22:59.596Z,6.80
2022-12-03T05:25:26.481Z,11.07
2022-12-03T05:27:53.730Z,6.85
2022-12-03T05:30:21.111Z,8.25
2022-12-03T05:32:48.062Z,8.55
2022-12-03T05:35:15.053Z,10.68
2022-12-03T05:37:42.083Z,10.15
2022-12-03T05:40:09.865Z,7.97
2022-12-03T05:42:54.953Z,9.85
2022-12-03T05:45:22.952Z,9.02
2022-12-03T05:47:49.877Z,12.73
2022-12-03T05:50:17.133Z,8.65
2022-12-03T05:52:44.104Z,8.15
2022-12-03T05:55:11.937Z,7.85
2022-12-03T05:57:38.936Z,10.32
2022-12-03T06:00:07.036Z,10.70
2022-12-03T06:02:39.580Z,11.52
2022-12-03T06:05:07.416Z,11.38
2022-12-03T06:07:34.425Z,10.30
2022-12-03T06:10:01.454Z,12.52
2022-12-03T06:12:28.407Z,13.90
2022-12-03T06:14:55.699Z,10.70
2022-12-03T06:17:22.827Z,9.43
2022-12-03T06:19:49.845Z,10.10
2022-12-03T06:22:16.754Z,9.50
2022-12-03T06:24:43.750Z,9.27
2022-12-03T06:27:11.275Z,6.63
2022-12-03T06:29:38.449Z,6.00
2022-12-03T06:32:07.749Z,7.05
2022-12-03T06:34:35.154Z,6.18
2022-12-03T06:37:02.040Z,6.20
2022-12-03T06:39:29.115Z,6.63
2022-12-03T06:41:56.278Z,8.98
2022-12-03T06:44:23.264Z,6.57
2022-12-03T06:46:50.385Z,6.63
2022-12-03T06:49:17.479Z,7.32
2022-12-03T06:51:44.877Z,7.70
2022-12-03T06:54:11.899Z,7.13
2022-12-03T06:56:44.841Z,7.43
2022-12-03T07:01:39.420Z,7.65
2022-12-03T07:04:06.459Z,6.50
2022-12-03T07:06:33.494Z,7.55
2022-12-03T07:09:00.497Z,9.30
2022-12-03T07:11:40.140Z,11.82
2022-12-03T07:14:08.061Z,14.75
2022-12-03T07:16:35.968Z,14.98
2022-12-03T07:19:03.999Z,14.15
2022-12-03T07:21:30.986Z,13.98
2022-12-03T07:23:57.981Z,11.10
2022-12-03T07:26:27.344Z,9.80
2022-12-03T07:28:55.755Z,9.73
2022-12-03T07:31:22.708Z,10.60
2022-12-03T07:33:49.718Z,11.73
2022-12-03T07:36:16.769Z,15.85
2022-12-03T07:38:48.391Z,18.38
2022-12-03T07:41:15.822Z,9.98
2022-12-03T07:43:42.791Z,8.10
2022-12-03T07:46:09.807Z,8.38
2022-12-03T07:48:38.560Z,7.50
2022-12-03T07:51:05.856Z,7.78
2022-12-03T07:53:36.310Z,8.52
2022-12-03T07:56:04.766Z,6.75
2022-12-03T07:58:31.695Z,8.18
2022-12-03T08:00:58.972Z,7.15
2022-12-03T08:03:27.307Z,7.90
2022-12-03T08:05:54.341Z,6.07
2022-12-03T08:08:21.410Z,6.05
2022-12-03T08:10:48.436Z,7.47
2022-12-03T08:13:16.319Z,6.13
2022-12-03T08:15:43.420Z,6.57
2022-12-03T08:18:18.453Z,6.35
2022-12-03T08:20:48.313Z,5.93
2022-12-03T08:23:17.031Z,4.97
2022-12-03T08:25:44.316Z,7.70
2022-12-03T08:28:19.644Z,8.13
2022-12-03T08:31:05.953Z,6.63
2022-12-03T08:33:35.383Z,6.68
2022-12-03T08:36:11.637Z,5.93
2022-12-03T08:38:41.195Z,5.65
2022-12-03T08:41:37.244Z,7.03
2022-12-03T08:44:28.322Z,7.88
2022-12-03T08:47:10.348Z,7.25
2022-12-03T08:49:37.424Z,11.25
2022-12-03T08:52:16.212Z,11.15
2022-12-03T08:54:45.003Z,8.23
2022-12-03T08:57:32.604Z,8.75
2022-12-03T09:00:18.152Z,8.85
2022-12-03T09:02:48.988Z,7.03
2022-12-03T09:05:20.533Z,6.57
2022-12-03T09:07:48.728Z,7.70
2022-12-03T09:10:15.769Z,7.28
2022-12-03T09:12:42.759Z,8.20
2022-12-03T09:15:12.383Z,7.00
2022-12-03T09:17:39.783Z,6.47
2022-12-03T09:20:07.464Z,11.52
2022-12-03T09:22:34.475Z,7.47
2022-12-03T09:25:01.434Z,8.75
2022-12-03T09:27:28.454Z,6.85
2022-12-03T09:29:55.407Z,8.20
2022-12-03T09:32:22.523Z,8.68
2022-12-03T09:34:49.653Z,7.45
2022-12-03T09:37:16.631Z,6.18
2022-12-03T09:39:43.600Z,8.43
2022-12-03T09:42:12.460Z,6.15
2022-12-03T09:44:41.714Z,6.90
2022-12-03T09:47:08.906Z,5.55
2022-12-03T09:49:36.533Z,7.95
2022-12-03T09:52:03.859Z,6.03
2022-12-03T09:54:31.255Z,5.95
2022-12-03T09:57:00.570Z,7.45
2022-12-03T09:59:31.618Z,7.85
2022-12-03T10:01:58.825Z,13.15
2022-12-03T10:04:27.408Z,11.63
2022-12-03T10:06:54.790Z,9.75
2022-12-03T10:09:26.617Z,10.38
2022-12-03T10:11:53.673Z,10.77
2022-12-03T10:14:20.778Z,12.07
2022-12-03T10:16:47.879Z,10.02
2022-12-03T10:19:34.134Z,10.15
2022-12-03T10:22:01.174Z,11.32
2022-12-03T10:24:35.241Z,9.85
2022-12-03T10:27:29.526Z,11.27
2022-12-03T10:32:29.002Z,9.73
2022-12-03T10:35:13.369Z,13.23
2022-12-03T10:38:03.414Z,8.75
2022-12-03T10:40:31.428Z,7.97
2022-12-03T10:43:20.409Z,9.57
2022-12-03T10:45:51.934Z,7.93
2022-12-03T10:48:20.658Z,9.35
2022-12-03T10:51:00.855Z,10.48
2022-12-03T10:53:30.297Z,9.98
2022-12-03T10:55:59.715Z,9.05
2022-12-03T10:58:31.318Z,13.27
2022-12-03T11:00:58.787Z,9.75
2022-12-03T11:03:28.178Z,11.02
2022-12-03T11:05:55.799Z,10.68
2022-12-03T11:08:24.712Z,11.45
2022-12-03T11:10:59.213Z,9.30
2022-12-03T11:13:50.206Z,7.13
2022-12-03T11:17:00.909Z,7.20
2022-12-03T11:19:37.844Z,7.25
2022-12-03T11:22:24.761Z,8.23
2022-12-03T11:25:31.615Z,9.05
2022-12-03T11:28:13.632Z,6.25
2022-12-03T11:30:52.293Z,6.22
2022-12-03T11:33:25.754Z,6.95
2022-12-03T11:36:05.296Z,7.68
2022-12-03T11:38:38.465Z,8.73
2022-12-03T11:41:17.219Z,6.80
2022-12-03T11:43:57.403Z,7.88
2022-12-03T11:46:36.619Z,10.07
2022-12-03T11:49:23.275Z,9.50
2022-12-03T11:51:50.278Z,7.70
2022-12-03T11:54:18.284Z,8.70
2022-12-03T11:56:46.301Z,9.50
2022-12-03T11:59:13.545Z,8.82
2022-12-03T12:01:42.243Z,8.88
2022-12-03T12:04:30.649Z,10.43
2022-12-03T12:06:57.808Z,10.45
2022-12-03T12:09:54.013Z,7.68
2022-12-03T12:12:39.051Z,7.18
2022-12-03T12:15:34.331Z,7.15
2022-12-03T12:18:38.821Z,6.30
2022-12-03T12:21:43.266Z,6.13
2022-12-03T12:24:31.991Z,7.13
2022-12-03T12:27:00.907Z,8.60
2022-12-03T12:29:28.049Z,8.35
2022-12-03T12:32:08.062Z,7.90
2022-12-03T12:34:39.244Z,9.90
2022-12-03T12:37:32.702Z,9.57
2022-12-03T12:40:00.137Z,8.07
2022-12-03T12:42:37.323Z,7.07
2022-12-03T12:45:16.498Z,9.50
2022-12-03T12:47:48.004Z,7.28
2022-12-03T12:50:16.197Z,8.20
2022-12-03T12:52:49.260Z,9.45
2022-12-03T12:55:17.524Z,8.80
2022-12-03T12:57:44.576Z,9.80
2022-12-03T13:00:19.252Z,8.18
2022-12-03T13:02:55.704Z,7.47
2022-12-03T13:05:23.542Z,8.10
2022-12-03T13:07:50.547Z,7.78
2022-12-03T13:10:35.694Z,9.52
2022-12-03T13:13:18.534Z,8.25
2022-12-03T13:15:52.289Z,7.53
2022-12-03T13:20:51.530Z,8.32
2022-12-03T13:23:34.835Z,10.63
2022-12-03T13:26:21.459Z,8.43
2022-12-03T13:28:52.308Z,6.80
2022-12-03T13:31:23.335Z,7.18
2022-12-03T13:33:50.806Z,7.70
2022-12-03T13:36:18.125Z,6.65
2022-12-03T13:38:46.363Z,7.88
2022-12-03T13:41:35.262Z,6.38
2022-12-03T13:44:02.283Z,6.40
2022-12-03T13:46:29.393Z,8.90
2022-12-03T13:49:01.562Z,10.15
2022-12-03T13:51:30.699Z,19.60
2022-12-03T13:53:58.459Z,14.73
2022-12-03T13:56:32.519Z,11.52
2022-12-03T13:59:00.463Z,14.52
2022-12-03T14:01:28.079Z,17.10
2022-12-03T14:03:55.078Z,18.08
2022-12-03T14:06:22.162Z,17.55
2022-12-03T14:08:49.489Z,13.23
2022-12-03T14:11:35.093Z,14.52
2022-12-03T14:14:02.143Z,15.23
2022-12-03T14:16:29.162Z,12.55
2022-12-03T14:18:56.282Z,12.75
2022-12-03T14:21:23.159Z,12.30
2022-12-03T14:23:50.119Z,12.98
2022-12-03T14:26:17.124Z,13.40
2022-12-03T14:28:44.019Z,16.40
2022-12-03T14:31:10.920Z,16.70
2022-12-03T14:33:37.945Z,16.77
2022-12-03T14:36:05.206Z,18.15
2022-12-03T14:38:32.322Z,17.20
2022-12-03T14:40:59.317Z,19.17
2022-12-03T14:43:26.421Z,21.67
2022-12-03T14:45:55.568Z,22.88
2022-12-03T14:48:22.620Z,22.50
2022-12-03T14:50:49.575Z,30.58
2022-12-03T14:53:16.631Z,21.70
2022-12-03T14:55:47.372Z,18.92
2022-12-03T14:58:14.484Z,15.10
2022-12-03T15:00:41.456Z,14.15
2022-12-03T15:03:08.431Z,11.13
2022-12-03T15:05:38.048Z,10.10
2022-12-03T15:08:06.565Z,7.30
2022-12-03T15:10:35.180Z,7.70
2022-12-03T15:13:20.890Z,6.88
2022-12-03T15:15:50.903Z,6.85
2022-12-03T15:18:17.946Z,8.77
2022-12-03T15:20:45.051Z,6.45
2022-12-03T15:23:14.539Z,6.75
2022-12-03T15:25:43.877Z,6.38
2022-12-03T15:28:12.304Z,7.63
2022-12-03T15:30:39.284Z,6.57
2022-12-03T15:33:06.553Z,6.60
2022-12-03T15:35:33.544Z,7.82
2022-12-03T15:38:00.542Z,7.10
2022-12-03T15:40:29.305Z,9.95
2022-12-03T15:42:56.257Z,12.80
2022-12-03T15:45:23.535Z,22.17
2022-12-03T15:47:54.459Z,16.48
2022-12-03T15:52:51.288Z,15.45
2022-12-03T15:55:18.646Z,14.65
2022-12-03T15:57:51.025Z,18.35
2022-12-03T16:00:18.373Z,16.30
2022-12-03T16:02:52.242Z,15.80
2022-12-03T16:05:20.182Z,17.27
2022-12-03T16:07:50.368Z,16.52
2022-12-03T16:10:21.600Z,14.85
2022-12-03T16:12:51.306Z,14.75
2022-12-03T16:15:20.992Z,14.07
2022-12-03T16:18:01.278Z,14.90
2022-12-03T16:20:32.162Z,14.65
2022-12-03T16:22:59.199Z,16.08
2022-12-03T16:25:28.962Z,15.40
2022-12-03T16:28:02.329Z,14.98
2022-12-03T16:30:31.879Z,17.70
2022-12-03T16:32:59.079Z,19.30
2022-12-03T16:35:26.517Z,18.05
2022-12-03T16:37:59.599Z,25.92
2022-12-03T16:40:31.824Z,18.27
2022-12-03T16:42:59.035Z,19.27
2022-12-03T16:45:46.494Z,19.48
2022-12-03T16:48:21.402Z,18.38
2022-12-03T16:50:48.646Z,21.77
2022-12-03T16:53:17.919Z,21.77
2022-12-03T16:55:47.192Z,20.52
2022-12-03T16:58:21.375Z,22.63
2022-12-03T17:00:49.158Z,21.83
2022-12-03T17:03:18.017Z,21.63
2022-12-03T17:05:45.537Z,22.88
2022-12-03T17:08:12.881Z,29.42
2022-12-03T17:10:40.113Z,22.98
2022-12-03T17:13:09.758Z,25.77
2022-12-03T17:15:37.458Z,22.45
2022-12-03T17:18:04.457Z,21.17
2022-12-03T17:20:32.061Z,20.15
2022-12-03T17:22:59.533Z,18.02
2022-12-03T17:25:27.056Z,17.35
2022-12-03T17:27:54.016Z,19.33
2022-12-03T17:30:21.144Z,16.95
2022-12-03T17:32:50.598Z,16.73
2022-12-03T17:35:17.984Z,16.63
2022-12-03T17:37:45.084Z,17.52
2022-12-03T17:40:13.129Z,17.77
2022-12-03T17:42:40.229Z,17.52
2022-12-03T17:45:07.866Z,15.57
2022-12-03T17:47:34.774Z,17.98
2022-12-03T17:50:01.961Z,18.35
2022-12-03T17:52:28.931Z,16.05
2022-12-03T17:55:10.823Z,14.65
2022-12-03T17:57:39.106Z,13.20
2022-12-03T18:00:06.626Z,12.65
2022-12-03T18:02:39.306Z,11.13
2022-12-03T18:05:06.469Z,10.52
2022-12-03T18:07:34.168Z,8.63
2022-12-03T18:10:01.339Z,8.75
2022-12-03T18:12:28.449Z,7.93
2022-12-03T18:14:55.472Z,7.65
2022-12-03T18:17:23.829Z,11.57
2022-12-03T18:19:50.862Z,9.35
2022-12-03T18:22:18.317Z,18.98
2022-12-03T18:24:47.553Z,23.67
2022-12-03T18:27:17.450Z,22.02
2022-12-03T18:29:44.376Z,23.73
2022-12-03T18:32:27.105Z,24.38
2022-12-03T18:34:55.163Z,26.73
2022-12-03T18:37:22.145Z,22.30
2022-12-03T18:39:49.325Z,19.42
2022-12-03T18:42:20.451Z,18.33
2022-12-03T18:44:50.043Z,18.85
2022-12-03T18:47:19.211Z,17.33
2022-12-03T18:49:55.881Z,15.52
2022-12-03T18:52:23.797Z,15.75
2022-12-03T18:54:50.787Z,15.90
2022-12-03T18:57:18.085Z,15.90
2022-12-03T18:59:45.213Z,16.08
2022-12-03T19:05:09.092Z,15.05
2022-12-03T19:07:36.200Z,16.77
2022-12-03T19:10:03.559Z,15.75
2022-12-03T19:12:31.372Z,14.82
2022-12-03T19:14:59.729Z,14.52
2022-12-03T19:17:27.522Z,14.63
2022-12-03T19:19:55.237Z,13.00
2022-12-03T19:22:22.653Z,10.33
2022-12-03T19:24:50.227Z,14.07
2022-12-03T19:27:17.230Z,11.65
2022-12-03T19:29:44.630Z,12.38
2022-12-03T19:32:11.534Z,11.57
2022-12-03T19:34:38.499Z,13.10
2022-12-03T19:37:05.561Z,11.27
2022-12-03T19:39:33.397Z,12.90
2022-12-03T19:42:00.338Z,14.43
2022-12-03T19:44:27.325Z,16.25
2022-12-03T19:46:54.530Z,12.60
2022-12-03T19:49:21.628Z,12.20
2022-12-03T19:51:48.726Z,13.65
2022-12-03T19:54:15.788Z,12.30
2022-12-03T19:56:43.186Z,11.38
2022-12-03T19:59:13.418Z,9.63
2022-12-03T20:01:40.966Z,8.23
2022-12-03T20:04:08.177Z,7.45
2022-12-03T20:06:37.619Z,10.65
2022-12-03T20:09:07.739Z,8.38
2022-12-03T20:11:34.846Z,11.13
2022-12-03T20:14:04.149Z,14.80
2022-12-03T20:16:31.160Z,20.95
2022-12-03T20:19:02.612Z,17.08
2022-12-03T20:21:30.820Z,16.08
2022-12-03T20:23:58.025Z,16.85
2022-12-03T20:26:25.078Z,15.25
2022-12-03T20:28:53.567Z,15.63
2022-12-03T20:31:21.607Z,16.23
2022-12-03T20:33:49.903Z,16.50
2022-12-03T20:36:18.558Z,14.15
2022-12-03T20:38:45.536Z,16.75
2022-12-03T20:41:14.214Z,16.17
2022-12-03T20:43:41.534Z,15.63
2022-12-03T20:46:27.649Z,16.50
2022-12-03T20:48:55.277Z,21.77
2022-12-03T20:51:24.505Z,15.93
2022-12-03T20:53:51.522Z,19.13
2022-12-03T20:56:22.032Z,16.08
2022-12-03T20:58:49.456Z,14.63
2022-12-03T21:01:24.422Z,21.52
2022-12-03T21:03:52.018Z,18.20
2022-12-03T21:06:19.093Z,15.35
2022-12-03T21:08:46.328Z,14.60
2022-12-03T21:11:20.471Z,15.65
2022-12-03T21:13:47.626Z,14.38
2022-12-03T21:16:17.049Z,15.98
2022-12-03T21:18:44.188Z,16.33
2022-12-03T21:21:11.674Z,12.75
2022-12-03T21:23:38.732Z,15.48
2022-12-03T21:26:12.627Z,14.50
2022-12-03T21:28:40.935Z,13.52
2022-12-03T21:31:10.250Z,16.23
2022-12-03T21:33:37.511Z,17.08
2022-12-03T21:36:05.127Z,19.10
2022-12-03T21:38:32.467Z,19.50
2022-12-03T21:40:59.741Z,19.38
2022-12-03T21:43:27.006Z,17.27
2022-12-03T21:45:54.052Z,18.08
2022-12-03T21:48:21.332Z,17.05
2022-12-03T21:51:04.908Z,16.38
2022-12-03T21:53:32.504Z,13.27
2022-12-03T21:55:59.849Z,13.15
2022-12-03T21:58:26.826Z,13.15
2022-12-03T22:00:53.934Z,13.73
2022-12-03T22:03:20.971Z,13.45
2022-12-03T22:05:49.102Z,12.98
2022-12-03T22:08:16.457Z,13.30
2022-12-03T22:10:43.504Z,13.93
2022-12-03T22:13:10.540Z,13.25
2022-12-03T22:15:40.606Z,11.07
2022-12-03T22:18:07.676Z,10.20
2022-12-03T22:20:34.645Z,8.35
2022-12-03T22:23:01.616Z,15.27
2022-12-03T22:25:28.905Z,15.77
2022-12-03T22:27:55.941Z,12.00
2022-12-03T22:30:22.860Z,11.35
2022-12-03T22:32:50.064Z,10.93
2022-12-03T22:35:17.031Z,14.38
2022-12-03T22:37:44.027Z,13.63
2022-12-03T22:40:11.401Z,14.00
2022-12-03T22:42:38.368Z,10.70
2022-12-03T22:45:05.869Z,14.70
2022-12-03T22:47:32.995Z,10.00
2022-12-03T22:49:59.924Z,13.57
2022-12-03T22:52:26.966Z,11.15
2022-12-03T22:54:53.975Z,9.93
2022-12-03T22:57:21.006Z,11.63
2022-12-03T22:59:47.945Z,11.63
2022-12-03T23:02:15.023Z,10.73
2022-12-03T23:04:41.961Z,10.50
2022-12-03T23:07:08.938Z,12.25
2022-12-03T23:09:35.920Z,11.30
2022-12-03T23:12:02.927Z,10.55
2022-12-03T23:14:29.897Z,11.00
2022-12-03T23:16:56.882Z,11.55
2022-12-03T23:19:23.987Z,12.00
2022-12-03T23:21:50.950Z,11.52
2022-12-03T23:24:17.927Z,11.13
2022-12-03T23:26:44.922Z,11.40
2022-12-03T23:29:12.056Z,12.40
2022-12-03T23:31:39.048Z,12.18
2022-12-03T23:34:06.284Z,11.85
2022-12-03T23:36:33.978Z,12.77
2022-12-03T23:39:01.030Z,12.13
2022-12-03T23:41:28.057Z,13.50
2022-12-03T23:43:55.112Z,14.00
2022-12-03T23:46:23.985Z,13.25
2022-12-03T23:48:51.431Z,12.18
2022-12-03T23:51:20.665Z,12.50
2022-12-03T23:53:47.890Z,12.57
2022-12-03T23:56:20.084Z,11.23
2022-12-03T23:58:47.067Z,10.57
